Latest Weather Observations for Green Cape

IDN60801

Issued at 12:32 am EST Friday 21 July 2017 (issued every 30 minutes, with the page automatically refreshed every 10 minutes)

About weather observations | Map of weather stations | Latest weather observations for NSW | Other Formats
Station Details ID: 069137 Name: GREEN CAPE AWS Lat: -37.26 Lon: 150.05 Height: 19.4 m
Data from the previous 72 hours. | See also: Recent months at Green Cape
Date/Time
EST
Temp
°C
App
Temp
°C
Dew
Point
°C
Rel
Hum
%
Delta-T
°C
Wind Press
QNH
hPa
Press
MSL
hPa
Rain since
9am
mm
Dir  Spd
km/h
Gust
km/h
Spd
kts
Gust
kts
21/12:30am 8.9 -1.3 7.0 88 0.9 WSW 50 59 27 32 1016.8 1016.8 2.2
21/12:00am 8.9 -0.5 7.2 89 0.8 WSW 46 56 25 30 1016.7 1016.7 2.2
 
Date/Time
EST
Temp
°C
App
Temp
°C
Dew
Point
°C
Rel
Hum
%
Delta-T
°C
Wind Press
QNH
hPa
Press
MSL
hPa
Rain since
9am
mm
Dir  Spd
km/h
Gust
km/h
Spd
kts
Gust
kts
20/11:30pm 8.9 -1.3 7.0 88 0.9 WSW 50 61 27 33 1016.4 1016.4 2.2
20/11:00pm 8.7 -1.2 6.8 88 0.9 WSW 48 56 26 30 1016.7 1016.7 2.2
20/10:30pm 8.5 -1.8 6.6 88 0.9 WSW 50 61 27 33 1016.2 1016.2 2.2
20/10:00pm 8.8 -1.9 6.4 85 1.1 WSW 52 61 28 33 1015.9 1015.9 2.0
20/09:30pm 8.8 -1.2 6.3 84 1.2 WSW 48 57 26 31 1015.8 1015.8 2.0
20/09:00pm 8.6 -1.8 6.2 85 1.1 WSW 50 61 27 33 1015.5 1015.5 1.8
20/08:30pm 9.0 -1.4 6.1 82 1.3 WSW 50 61 27 33 1015.0 1015.0 1.8
20/08:00pm 8.9 -1.5 6.2 83 1.2 WSW 50 63 27 34 1014.6 1014.6 1.8
20/07:30pm 8.9 -1.5 6.2 83 1.2 WSW 50 63 27 34 1014.4 1014.4 1.8
20/07:00pm 8.7 -1.7 6.0 83 1.2 WSW 50 63 27 34 1014.2 1014.2 1.8
20/06:39pm 8.8 -1.3 5.9 82 1.3 WSW 48 67 26 36 1014.0 1014.0 1.8
20/06:30pm 8.7 -1.0 5.8 82 1.3 WSW 46 61 25 33 1013.9 1013.9 1.8
20/06:00pm 8.8 -1.2 6.3 84 1.2 WSW 48 59 26 32 1013.5 1013.5 1.8
20/05:30pm 9.1 -2.0 6.2 82 1.3 WSW 54 67 29 36 1012.9 1012.9 1.8
20/05:15pm 9.4 -0.9 6.3 81 1.4 WSW 50 70 27 38 1012.5 1012.5 1.8
20/05:00pm 9.3 -1.1 6.2 81 1.4 WSW 50 61 27 33 1012.6 1012.6 1.8
20/04:30pm 9.3 -1.5 6.0 80 1.5 WSW 52 70 28 38 1012.6 1012.6 1.8
20/04:27pm 9.5 -1.3 6.2 80 1.5 WSW 52 70 28 38 1012.5 1012.5 1.8
20/04:00pm 9.9 0.9 6.4 79 1.6 WSW 43 54 23 29 1012.2 1012.2 1.8
20/03:30pm 9.7 -1.3 6.6 81 1.4 WSW 54 69 29 37 1011.7 1011.7 1.6
20/03:00pm 9.2 -2.3 6.3 82 1.3 WSW 56 72 30 39 1011.2 1011.2 1.6
20/02:57pm 9.2 -1.5 6.6 84 1.2 WSW 52 72 28 39 1011.2 1011.2 1.6
20/02:30pm 8.0 -1.2 6.3 89 0.8 SW 44 56 24 30 1011.5 1011.5 1.6
20/02:00pm 8.7 -2.4 6.2 84 1.1 WSW 54 67 29 36 1010.9 1010.9 1.2
20/01:30pm 9.4 -0.6 6.3 81 1.4 WSW 48 59 26 32 1010.0 1010.0 1.0
20/01:00pm 8.7 -1.3 6.3 85 1.1 WSW 48 59 26 32 1009.9 1009.9 1.0
20/12:30pm 7.8 -3.4 5.9 88 0.9 WSW 54 69 29 37 1010.5 1010.5 0.8
20/12:00pm 8.6 -2.8 6.6 87 0.9 SW 56 72 30 39 1010.2 1010.2 0.4
20/11:30am 8.8 -2.2 6.6 86 1.0 SSW 54 67 29 36 1010.3 1010.3 0.4
20/11:08am 11.2 0.8 5.9 70 2.5 SW 50 67 27 36 1010.1 1010.1 0.0
20/11:00am 11.6 0.3 5.5 66 2.8 WSW 54 69 29 37 1010.1 1010.1 0.0
20/10:36am 11.5 -0.8 5.2 65 2.9 WSW 59 80 32 43 1009.9 1009.9 0.0
20/10:30am 11.3 -0.4 5.2 66 2.8 WSW 56 72 30 39 1009.9 1009.9 0.0
20/10:00am 11.1 -0.9 4.8 65 2.9 WSW 57 76 31 41 1009.5 1009.5 0.0
20/09:35am 10.8 -2.4 4.7 66 2.8 WSW 63 82 34 44 1009.6 1009.6 0.0
20/09:30am 10.7 -2.9 4.6 66 2.7 WSW 65 82 35 44 1009.4 1009.4 0.0
20/09:20am 10.6 -0.9 4.3 65 2.8 WSW 54 72 29 39 1009.5 1009.5 0.0
20/09:00am 10.6 -1.8 4.9 68 2.6 WSW 59 72 32 39 1009.3 1009.3 0.2
20/08:37am 10.5 -1.5 4.6 67 2.6 WSW 57 80 31 43 1009.1 1009.1 0.2
20/08:30am 10.7 -1.3 4.8 67 2.7 WSW 57 72 31 39 1009.2 1009.2 0.2
20/08:00am 11.0 -0.1 4.7 65 2.9 WSW 52 70 28 38 1009.2 1009.2 0.2
20/07:30am 11.0 0.7 4.9 66 2.8 WSW 48 74 26 40 1009.2 1009.2 0.2
20/07:22am 11.0 0.3 4.7 65 2.8 WSW 50 74 27 40 1009.1 1009.1 0.2
20/07:00am 11.2 0.8 4.4 63 3.1 WSW 48 65 26 35 1008.9 1008.9 0.2
20/06:30am 11.2 -0.1 3.7 60 3.3 WSW 52 63 28 34 1008.7 1008.7 0.2
20/06:00am 11.3 0.5 4.3 62 3.2 WSW 50 69 27 37 1008.7 1008.7 0.2
20/05:30am 11.2 0.8 4.2 62 3.1 WSW 48 67 26 36 1008.5 1008.5 0.2
20/05:13am 11.2 0.5 4.4 63 3.1 WSW 50 69 27 37 1008.5 1008.5 0.2
20/05:00am 11.1 0.3 4.1 62 3.1 WSW 50 65 27 35 1008.5 1008.5 0.2
20/04:30am 10.9 0.2 4.4 64 2.9 WSW 50 74 27 40 1008.6 1008.6 0.2
20/04:16am 10.8 0.5 4.5 65 2.8 WSW 48 67 26 36 1008.7 1008.7 0.2
20/04:00am 10.7 0.4 4.8 67 2.7 WSW 48 63 26 34 1008.8 1008.8 0.2
20/03:30am 10.5 0.9 4.6 67 2.6 WSW 44 67 24 36 1009.2 1009.2 0.2
20/03:27am 10.6 1.1 4.7 67 2.7 WSW 44 67 24 36 1009.3 1009.3 0.2
20/03:24am 10.5 1.1 4.4 66 2.7 WSW 43 67 23 36 1009.2 1009.2 0.2
20/03:00am 10.2 3.6 4.4 67 2.6 WSW 28 41 15 22 1010.0 1010.0 0.2
20/02:30am 10.1 4.6 3.8 65 2.8 SW 22 39 12 21 1010.3 1010.3 0.2
20/02:06am 10.2 3.5 3.9 65 2.8 SW 28 46 15 25 1010.1 1010.1 0.2
20/02:00am 10.1 4.3 4.3 67 2.6 SW 24 37 13 20 1010.2 1010.2 0.2
20/01:30am 10.4 3.1 4.3 66 2.7 WSW 32 50 17 27 1010.2 1010.2 0.2
20/01:00am 10.5 0.2 4.6 67 2.7 WSW 48 76 26 41 1009.6 1009.6 0.2
20/12:36am 10.7 0.5 5.3 69 2.5 WSW 48 67 26 36 1009.8 1009.8 0.2
20/12:30am 10.7 -0.2 5.3 69 2.5 WSW 52 67 28 36 1009.7 1009.7 0.2
20/12:14am 10.8 -0.8 5.6 70 2.4 WSW 56 74 30 40 1009.5 1009.5 0.2
20/12:00am 10.9 -0.3 5.9 71 2.3 WSW 54 69 29 37 1009.5 1009.5 0.2
 
Date/Time
EST
Temp
°C
App
Temp
°C
Dew
Point
°C
Rel
Hum
%
Delta-T
°C
Wind Press
QNH
hPa
Press
MSL
hPa
Rain since
9am
mm
Dir  Spd
km/h
Gust
km/h
Spd
kts
Gust
kts
19/11:30pm 10.9 -0.7 5.9 71 2.3 WSW 56 76 30 41 1009.8 1009.8 0.2
19/11:27pm 11.0 -0.1 6.2 72 2.2 WSW 54 76 29 41 1009.6 1009.6 0.2
19/11:00pm 11.1 0.0 6.3 72 2.3 WSW 54 67 29 36 1009.9 1009.9 0.2
19/10:44pm 11.1 0.8 6.3 72 2.3 WSW 50 72 27 39 1009.8 1009.8 0.2
19/10:30pm 11.2 0.9 6.3 72 2.3 WSW 50 65 27 35 1010.1 1010.1 0.2
19/10:00pm 11.2 0.6 6.9 75 2.0 WSW 52 65 28 35 1009.7 1009.7 0.2
19/09:31pm 11.4 -0.1 7.3 76 2.0 WSW 57 78 31 42 1009.7 1009.7 0.2
19/09:30pm 11.4 0.1 7.3 76 2.0 WSW 56 72 30 39 1009.8 1009.8 0.2
19/09:03pm 11.8 1.9 8.3 79 1.7 WSW 50 70 27 38 1009.8 1009.8 0.2
19/09:00pm 11.7 1.0 8.0 78 1.8 WSW 54 70 29 38 1009.7 1009.7 0.2
19/08:42pm 11.8 2.3 8.3 79 1.7 WSW 48 67 26 36 1009.6 1009.6 0.2
19/08:30pm 11.9 2.0 8.4 79 1.7 WSW 50 63 27 34 1009.5 1009.5 0.2
19/08:00pm 12.1 4.8 8.8 80 1.6 WSW 37 48 20 26 1009.6 1009.6 0.2
19/07:30pm 12.3 3.3 9.0 80 1.7 WSW 46 56 25 30 1009.1 1009.1 0.2
19/07:00pm 12.6 4.7 9.2 80 1.7 WSW 41 48 22 26 1008.6 1008.6 0.2
19/06:30pm 12.7 4.3 9.5 81 1.6 SW 44 54 24 29 1008.2 1008.2 0.2
19/06:00pm 12.5 3.2 9.3 81 1.6 WSW 48 59 26 32 1008.1 1008.1 0.2
19/05:30pm 12.6 2.6 9.4 81 1.6 WSW 52 65 28 35 1007.6 1007.6 0.2
19/05:00pm 12.1 2.8 9.3 83 1.4 SW 48 61 26 33 1006.6 1006.6 0.2
19/04:30pm 12.1 2.8 9.1 82 1.5 SW 48 59 26 32 1006.2 1006.2 0.2
19/04:00pm 12.4 1.4 8.5 77 1.9 WSW 56 67 30 36 1006.1 1006.1 0.2
19/03:30pm 12.5 3.3 9.5 82 1.5 WSW 48 56 26 30 1005.7 1005.7 0.2
19/03:00pm 12.1 3.2 9.1 82 1.5 WSW 46 56 25 30 1005.6 1005.6 0.2
19/02:30pm 12.1 3.2 9.3 83 1.4 WSW 46 57 25 31 1005.2 1005.2 0.2
19/02:00pm 12.2 3.9 9.4 83 1.4 WSW 43 56 23 30 1004.9 1004.9 0.2
19/01:30pm 11.9 3.0 9.1 83 1.4 WSW 46 57 25 31 1004.6 1004.6 0.2
19/01:00pm 11.6 2.7 9.2 85 1.2 WSW 46 57 25 31 1004.4 1004.4 0.0
19/12:30pm 11.4 1.1 8.3 81 1.5 WSW 52 63 28 34 1004.3 1004.3 0.0
19/12:00pm 12.7 3.1 8.0 73 2.3 WSW 48 57 26 31 1004.1 1004.1 0.0
19/11:30am 12.7 3.5 7.8 72 2.4 WSW 46 61 25 33 1004.4 1004.4 0.0
19/11:01am 13.0 4.6 7.5 69 2.7 WSW 41 59 22 32 1004.6 1004.6 0.0
19/11:00am 13.0 5.0 7.5 69 2.7 WSW 39 57 21 31 1004.7 1004.7 0.0
19/10:57am 13.1 5.4 7.3 68 2.8 WSW 37 57 20 31 1004.8 1004.8 0.0
19/10:46am 13.1 6.2 7.1 67 2.9 WSW 33 43 18 23 1004.9 1004.9 0.0
19/10:30am 12.6 8.0 5.8 63 3.2 W 19 24 10 13 1005.2 1005.2 0.0
19/10:00am 12.4 9.2 5.3 62 3.3 NW 11 17 6 9 1005.3 1005.3 0.0
19/09:30am 10.9 7.1 5.7 70 2.4 WNW 15 20 8 11 1005.2 1005.2 0.0
19/09:00am 10.2 7.2 6.0 75 2.0 WNW 11 17 6 9 1005.0 1005.0 0.0
19/08:30am 8.6 5.1 5.4 80 1.4 WNW 13 17 7 9 1005.1 1005.1 0.0
19/08:00am 7.7 4.1 4.8 82 1.3 WNW 13 17 7 9 1004.8 1004.8 0.0
19/07:30am 7.3 4.8 4.6 83 1.2 W 7 9 4 5 1004.9 1004.9 0.0
19/07:00am 7.2 3.2 4.7 84 1.1 WNW 15 19 8 10 1004.9 1004.9 0.0
19/06:30am 7.3 3.6 4.6 83 1.2 W 13 17 7 9 1004.5 1004.5 0.0
19/06:00am 7.7 3.7 4.7 81 1.3 WNW 15 19 8 10 1004.3 1004.3 0.0
19/05:30am 7.7 4.1 4.8 82 1.3 WNW 13 17 7 9 1004.0 1004.0 0.0
19/05:00am 8.2 3.5 5.1 81 1.4 W 19 22 10 12 1003.9 1003.9 0.0
19/04:30am 8.2 5.4 5.1 81 1.4 WNW 9 13 5 7 1003.8 1003.8 0.0
19/04:00am 8.5 6.3 5.1 79 1.5 W 6 9 3 5 1004.0 1004.0 0.0
19/03:30am 8.6 5.7 4.8 77 1.7 WNW 9 11 5 6 1004.1 1004.1 0.0
19/03:00am 8.7 6.1 4.3 74 1.9 WNW 7 9 4 5 1004.3 1004.3 0.0
19/02:30am 9.2 5.7 3.4 67 2.5 WNW 11 15 6 8 1004.5 1004.5 0.0
19/02:00am 8.8 5.2 4.8 76 1.8 WNW 13 17 7 9 1004.5 1004.5 0.0
19/01:30am 9.1 5.1 4.9 75 1.9 WNW 15 17 8 9 1004.5 1004.5 0.0
19/01:00am 9.4 5.5 5.4 76 1.8 WNW 15 20 8 11 1004.7 1004.7 0.0
19/12:30am 9.9 5.7 5.5 74 2.0 W 17 20 9 11 1004.9 1004.9 0.0
19/12:00am 10.2 5.9 5.4 72 2.2 WNW 17 22 9 12 1005.1 1005.1 0.0
 
Date/Time
EST
Temp
°C
App
Temp
°C
Dew
Point
°C
Rel
Hum
%
Delta-T
°C
Wind Press
QNH
hPa
Press
MSL
hPa
Rain since
9am
mm
Dir  Spd
km/h
Gust
km/h
Spd
kts
Gust
kts
18/11:30pm 11.1 7.4 6.5 73 2.2 WNW 15 19 8 10 1005.4 1005.4 0.0
18/11:00pm 12.1 7.3 2.8 53 4.1 WNW 17 20 9 11 1005.4 1005.4 0.0
18/10:30pm 11.4 8.2 2.9 56 3.7 WNW 9 17 5 9 1005.8 1005.8 0.0
18/10:00pm 12.3 8.6 2.5 51 4.3 NW 11 13 6 7 1006.0 1006.0 0.0
18/09:30pm 12.2 8.1 2.4 51 4.3 NW 13 17 7 9 1006.0 1006.0 0.0
18/09:00pm 11.7 8.5 3.0 55 3.8 NW 9 13 5 7 1006.1 1006.1 0.0
18/08:30pm 11.8 9.0 5.2 64 3.0 WNW 9 13 5 7 1006.1 1006.1 0.0
18/08:00pm 12.9 9.5 1.9 47 4.8 NW 9 15 5 8 1006.1 1006.1 0.0
18/07:30pm 13.4 9.3 2.3 47 4.9 NNW 13 19 7 10 1006.1 1006.1 0.0
18/07:00pm 13.9 10.2 2.5 46 5.1 NW 11 15 6 8 1006.0 1006.0 0.0
18/06:30pm 13.8 10.2 3.0 48 4.8 NW 11 17 6 9 1006.1 1006.1 0.0
18/06:00pm 14.2 10.5 4.2 51 4.6 WNW 13 17 7 9 1006.1 1006.1 0.0
18/05:30pm 14.9 10.8 2.4 43 5.6 NW 13 22 7 12 1005.7 1005.7 0.0
18/05:00pm 15.1 11.1 2.6 43 5.6 WNW 13 20 7 11 1005.5 1005.5 0.0
18/04:30pm 16.3 11.2 4.0 44 5.7 WNW 20 32 11 17 1005.5 1005.5 0.0
18/04:00pm 17.3 12.8 4.3 42 6.2 WNW 17 24 9 13 1005.4 1005.4 0.0
18/03:30pm 18.1 15.1 4.3 40 6.5 W 9 19 5 10 1005.2 1005.2 0.0
18/03:00pm 18.9 16.0 4.7 39 6.9 NNW 9 17 5 9 1005.0 1005.0 0.0
18/02:30pm 17.1 12.9 5.7 47 5.5 NW 17 30 9 16 1005.0 1005.0 0.0
18/02:00pm 16.2 11.8 10.5 69 3.0 N 24 28 13 15 1005.1 1005.1 0.0
18/01:30pm 16.6 11.4 10.2 66 3.4 N 28 33 15 18 1005.3 1005.3 0.0
18/01:00pm 17.0 11.9 9.2 60 4.1 N 26 30 14 16 1005.8 1005.8 0.0
18/12:30pm 17.8 12.2 8.6 55 4.7 N 28 35 15 19 1006.4 1006.4 0.0
18/12:00pm 17.6 12.1 9.2 58 4.4 N 28 37 15 20 1006.8 1006.8 0.0
18/11:30am 16.6 10.8 9.3 62 3.8 N 30 35 16 19 1007.4 1007.4 0.0
18/11:00am 16.1 10.6 9.1 63 3.6 N 28 32 15 17 1007.9 1007.9 0.0
18/10:30am 17.3 11.9 8.2 55 4.6 N 26 32 14 17 1008.6 1008.6 0.0
18/10:00am 15.4 12.5 8.2 62 3.6 N 13 17 7 9 1009.3 1009.3 0.0
18/09:30am 14.4 13.0 8.8 69 2.8 NW 6 9 3 5 1009.6 1009.6 0.0
18/09:00am 14.0 12.1 7.5 65 3.2 N 7 11 4 6 1009.8 1009.8 0.0
18/08:30am 12.6 10.4 7.7 72 2.4 WNW 9 11 5 6 1010.1 1010.1 0.0
18/08:00am 12.3 11.2 6.8 69 2.6 WNW 2 6 1 3 1010.3 1010.3 0.0
18/07:30am 11.6 9.5 6.7 72 2.3 NW 7 13 4 7 1010.3 1010.3 0.0
18/07:00am 11.5 8.8 5.6 67 2.7 NW 9 17 5 9 1010.4 1010.4 0.0
18/06:30am 12.7 10.3 5.4 61 3.4 NNW 7 11 4 6 1010.2 1010.2 0.0
18/06:00am 12.8 10.0 5.2 60 3.5 NNW 9 13 5 7 1010.2 1010.2 0.0
18/05:30am 12.9 9.5 6.0 63 3.3 N 13 17 7 9 1010.4 1010.4 0.0
18/05:00am 13.6 10.7 6.7 63 3.3 N 11 17 6 9 1010.5 1010.5 0.0
18/04:30am 14.1 9.4 6.0 58 3.9 NNW 20 30 11 16 1010.5 1010.5 0.0
18/04:00am 12.4 9.1 6.5 67 2.8 NNW 13 17 7 9 1010.5 1010.5 0.0
18/03:30am 12.3 9.4 6.6 68 2.7 NNW 11 15 6 8 1010.9 1010.9 0.0
18/03:00am 12.5 8.4 7.8 73 2.3 N 19 22 10 12 1010.9 1010.9 0.0
18/02:30am 12.4 8.4 8.3 76 2.0 N 19 24 10 13 1011.2 1011.2 0.0
18/02:00am 12.5 8.3 8.2 75 2.1 N 20 24 11 13 1011.6 1011.6 0.0
18/01:30am 13.0 7.8 8.7 75 2.2 N 26 30 14 16 1011.5 1011.5 0.0
18/01:00am 12.8 8.8 8.1 73 2.3 N 19 22 10 12 1011.7 1011.7 0.0

Other Formats:

Comma delimited format used in spreadsheet applications
http://www.bom.gov.au/fwo/IDN60801/IDN60801.94934.axf

JavaScript Object Notation format (JSON) in row-major order
http://www.bom.gov.au/fwo/IDN60801/IDN60801.94934.json